Time;durP1;ratioP1;P1;durP2;ratioP2;P2;SDS_P1;SDS_P2;PMS_P1;PMS_P2;Temp;Humidity;BMP_temperature;BMP_pressure;BME280_temperature;BME280_humidity;BME280_pressure;Samples;Min_cycle;Max_cycle;Signal;HPM_P1;HPM_P2
2021/06/13 15:48:27;;;;;;;4.18;3.35;;;;;;;27.11;48.29;100914.41;144991;569;6002;-82
2021/06/13 15:50:58;;;;;;;3.20;2.90;;;;;;;27.20;46.43;100910.53;144992;565;6002;-82
2021/06/13 15:53:32;;;;;;;4.75;3.05;;;;;;;27.14;46.39;100913.44;144992;801;6003;-81
2021/06/13 15:56:00;;;;;;;4.25;2.97;;;;;;;27.33;45.58;100911.00;144992;741;6011;-82
2021/06/13 15:58:34;;;;;;;3.90;2.75;;;;;;;27.19;46.10;100924.78;144992;716;6002;-86
2021/06/13 16:01:04;;;;;;;4.57;3.00;;;;;;;27.18;46.66;100927.50;144992;886;6002;-79
2021/06/13 16:03:31;;;;;;;3.75;3.20;;;;;;;27.13;46.28;100930.34;144992;571;6002;-78
2021/06/13 16:06:02;;;;;;;4.05;3.33;;;;;;;27.07;47.77;100934.06;144992;604;6002;-80
2021/06/13 16:08:29;;;;;;;5.62;3.60;;;;;;;27.19;46.46;100947.88;144992;593;6002;-79
2021/06/13 16:10:59;;;;;;;6.05;5.45;;;;;;;27.16;46.98;100972.87;144992;740;6002;-81
2021/06/13 16:13:26;;;;;;;5.47;3.90;;;;;;;26.98;50.41;100993.03;144992;592;6002;-79
2021/06/13 16:15:59;;;;;;;6.20;4.10;;;;;;;26.85;47.97;100991.69;144992;724;6002;-79
2021/06/13 16:18:26;;;;;;;7.30;4.07;;;;;;;26.69;42.37;100976.22;144992;590;6002;-79
2021/06/13 16:20:53;;;;;;;7.70;4.32;;;;;;;26.71;40.40;100977.06;144992;905;6002;-80
2021/06/13 16:23:26;;;;;;;9.82;4.90;;;;;;;26.60;40.88;100969.37;144991;585;6002;-79
2021/06/13 16:25:54;;;;;;;4.03;3.55;;;;;;;26.66;42.13;100965.69;144992;589;6002;-78
2021/06/13 16:28:23;;;;;;;7.50;4.47;;;;;;;26.61;41.21;100952.50;144992;569;6002;-77
2021/06/13 16:30:52;;;;;;;8.40;3.87;;;;;;;26.53;40.96;100959.84;144992;569;6012;-78
2021/06/13 16:33:21;;;;;;;5.18;4.20;;;;;;;26.54;40.24;100937.66;144992;704;6002;-78
2021/06/13 16:35:48;;;;;;;9.23;4.32;;;;;;;26.56;40.16;100941.13;144992;773;6002;-79
2021/06/13 16:38:16;;;;;;;6.60;4.15;;;;;;;26.61;40.93;100939.19;144992;721;6002;-79
2021/06/13 16:40:44;;;;;;;11.60;4.75;;;;;;;26.60;40.16;100931.25;144992;911;6002;-80
2021/06/13 16:43:13;;;;;;;6.80;4.43;;;;;;;26.62;41.26;100943.56;144992;622;6002;-79
2021/06/13 16:45:41;;;;;;;9.43;5.03;;;;;;;26.51;40.92;100951.06;144993;593;6002;-76
2021/06/13 16:48:10;;;;;;;8.57;4.97;;;;;;;26.41;41.10;100945.16;144993;631;6002;-80
2021/06/13 16:50:37;;;;;;;5.90;4.80;;;;;;;26.44;40.59;100933.56;144993;565;6002;-80
2021/06/13 16:53:06;;;;;;;8.43;4.62;;;;;;;26.40;40.94;100943.41;144993;570;6003;-79
2021/06/13 16:55:33;;;;;;;9.32;4.30;;;;;;;26.41;41.64;100958.47;144993;564;6002;-80
2021/06/13 16:58:02;;;;;;;12.20;4.80;;;;;;;26.27;41.57;100942.09;144993;713;6002;-80
2021/06/13 17:00:32;;;;;;;8.52;4.72;;;;;;;26.26;42.33;100943.00;144993;573;6003;-80
2021/06/13 17:03:01;;;;;;;9.88;4.20;;;;;;;26.19;42.73;100954.78;144993;570;6002;-80
2021/06/13 17:05:28;;;;;;;8.52;4.85;;;;;;;26.10;43.98;100947.94;144993;720;6002;-79
2021/06/13 17:07:56;;;;;;;9.43;4.30;;;;;;;25.97;44.33;100944.78;144993;581;6002;-81
2021/06/13 17:10:22;;;;;;;5.70;4.10;;;;;;;26.04;44.48;100950.78;144993;619;6002;-79
2021/06/13 17:12:49;;;;;;;10.85;4.30;;;;;;;25.92;45.16;100941.38;144993;909;6002;-79
2021/06/13 17:15:16;;;;;;;8.40;4.28;;;;;;;25.84;45.22;100936.28;144993;579;6002;-80
2021/06/13 17:17:43;;;;;;;6.32;4.20;;;;;;;25.79;45.04;100953.31;144992;564;6002;-78
2021/06/13 17:20:10;;;;;;;7.28;3.83;;;;;;;25.82;44.28;100953.19;144992;910;6002;-80
2021/06/13 17:22:47;;;;;;;8.23;3.00;;;;;;;25.70;43.43;100944.66;144992;597;6002;-79
2021/06/13 17:25:29;;;;;;;3.65;2.50;;;;;;;25.64;41.89;100944.88;144992;806;6002;-79
2021/06/13 17:27:56;;;;;;;5.43;2.67;;;;;;;25.59;41.24;100940.59;144992;647;6002;-79
2021/06/13 17:30:24;;;;;;;4.87;2.40;;;;;;;25.55;41.69;100950.44;144993;573;6002;-79
2021/06/13 17:32:51;;;;;;;6.93;3.10;;;;;;;25.55;42.80;100961.09;144992;644;6002;-77
2021/06/13 17:35:18;;;;;;;8.20;3.10;;;;;;;25.55;43.45;100966.41;144993;570;6002;-79
2021/06/13 17:37:44;;;;;;;9.35;4.00;;;;;;;25.45;45.18;100976.41;144993;576;6002;-79
2021/06/13 17:40:14;;;;;;;4.05;3.65;;;;;;;25.35;46.30;100969.59;144992;787;6002;-78
2021/06/13 17:42:41;;;;;;;4.47;3.92;;;;;;;25.33;47.26;100977.62;144993;910;6002;-79
2021/06/13 17:45:11;;;;;;;6.50;4.28;;;;;;;25.31;47.00;100975.91;144993;580;6003;-79
2021/06/13 17:47:37;;;;;;;4.75;3.72;;;;;;;25.32;46.58;100975.87;144993;569;6002;-79
2021/06/13 17:50:08;;;;;;;4.30;3.90;;;;;;;25.29;47.74;100985.72;144993;584;6002;-80
2021/06/13 17:52:35;;;;;;;4.60;3.62;;;;;;;25.33;46.67;100990.03;144993;910;6003;-79
2021/06/13 17:55:03;;;;;;;6.53;3.47;;;;;;;25.17;48.28;100984.25;144993;823;6002;-79
2021/06/13 17:57:29;;;;;;;3.87;3.40;;;;;;;25.02;49.87;100987.28;144993;910;6002;-79
2021/06/13 17:59:56;;;;;;;4.47;3.62;;;;;;;24.92;47.65;100979.56;144993;686;6002;-81
2021/06/13 18:02:24;;;;;;;2.62;2.42;;;;;;;24.94;46.49;100985.72;144993;829;6002;-82
2021/06/13 18:04:51;;;;;;;3.97;2.60;;;;;;;24.95;45.77;100983.94;144993;581;6002;-82
2021/06/13 18:07:19;;;;;;;2.72;2.20;;;;;;;25.08;45.67;100982.69;144993;564;6002;-81
2021/06/13 18:09:48;;;;;;;2.45;2.03;;;;;;;25.09;44.34;100987.09;144993;591;6002;-80
2021/06/13 18:12:15;;;;;;;3.70;1.90;;;;;;;25.14;44.12;100981.66;144993;604;6002;-79
2021/06/13 18:14:42;;;;;;;1.87;1.70;;;;;;;25.01;43.85;100973.16;144993;580;6002;-81
2021/06/13 18:17:09;;;;;;;1.90;1.33;;;;;;;25.09;43.03;100981.78;144993;691;6002;-81
2021/06/13 18:19:37;;;;;;;1.85;1.42;;;;;;;25.08;41.41;100964.09;144993;593;6002;-80
2021/06/13 18:22:04;;;;;;;4.72;1.35;;;;;;;24.96;42.16;100977.72;144993;910;6002;-81
2021/06/13 18:24:34;;;;;;;2.78;1.20;;;;;;;24.92;41.09;100957.44;144994;570;5002;-81
2021/06/13 18:27:02;;;;;;;3.42;1.15;;;;;;;24.85;41.98;100954.09;144994;596;5002;-80
2021/06/13 18:29:29;;;;;;;2.55;1.17;;;;;;;24.93;40.76;100954.75;144994;569;5003;-80
2021/06/13 18:31:58;;;;;;;2.78;1.20;;;;;;;24.86;41.05;100966.44;144994;589;5002;-80
2021/06/13 18:34:25;;;;;;;2.97;1.00;;;;;;;24.89;39.14;100957.53;144994;583;5002;-80
2021/06/13 18:36:52;;;;;;;1.45;1.02;;;;;;;24.82;35.01;100946.22;144994;773;5003;-79
2021/06/13 18:39:20;;;;;;;1.23;0.88;;;;;;;24.86;34.62;100939.03;144994;604;5002;-81
2021/06/13 18:41:51;;;;;;;1.12;0.77;;;;;;;24.80;34.98;100948.00;144993;591;5002;-82
2021/06/13 18:44:18;;;;;;;1.73;0.90;;;;;;;24.89;34.74;100957.53;144994;570;5002;-83
2021/06/13 18:46:48;;;;;;;1.17;0.85;;;;;;;24.95;35.38;100952.94;144994;575;5002;-81
2021/06/13 18:49:15;;;;;;;2.30;0.98;;;;;;;24.91;35.76;100953.03;144994;592;5002;-81
2021/06/13 18:51:42;;;;;;;1.17;0.90;;;;;;;24.84;36.95;100955.00;144994;607;5002;-81
2021/06/13 18:54:10;;;;;;;1.42;1.10;;;;;;;24.95;37.48;100971.50;144994;569;5002;-80
2021/06/13 18:56:40;;;;;;;3.47;1.50;;;;;;;24.86;36.90;100957.59;144994;910;5002;-82
2021/06/13 18:59:10;;;;;;;2.95;1.40;;;;;;;24.91;37.12;100971.63;144994;599;5002;-83
2021/06/13 19:01:37;;;;;;;1.83;1.23;;;;;;;24.98;37.40;100976.75;144994;624;5002;-84
2021/06/13 19:04:06;;;;;;;2.05;1.50;;;;;;;25.02;37.32;100979.31;144994;613;5002;-80
2021/06/13 19:06:33;;;;;;;2.40;1.80;;;;;;;25.10;38.16;100986.19;144994;606;5002;-82
2021/06/13 19:09:00;;;;;;;2.17;1.45;;;;;;;25.17;37.59;100997.53;144994;569;5002;-80
2021/06/13 19:11:27;;;;;;;2.17;1.50;;;;;;;25.18;37.38;101001.91;144994;594;5002;-83
2021/06/13 19:13:54;;;;;;;2.95;1.70;;;;;;;25.20;37.56;101010.72;144994;579;5002;-81
2021/06/13 19:16:21;;;;;;;2.53;2.10;;;;;;;25.29;38.21;101010.50;144994;589;5002;-79
2021/06/13 19:18:48;;;;;;;3.85;2.10;;;;;;;25.34;37.79;101008.59;144994;579;5002;-81
2021/06/13 19:21:15;;;;;;;2.35;1.60;;;;;;;25.34;38.28;101016.56;144994;609;5003;-83
2021/06/13 19:23:43;;;;;;;3.12;1.92;;;;;;;25.32;37.87;101025.47;144994;622;5002;-82
2021/06/13 19:26:10;;;;;;;2.10;1.90;;;;;;;25.38;38.05;101030.63;144994;591;5002;-81
2021/06/13 19:28:38;;;;;;;3.80;1.98;;;;;;;25.38;38.07;101038.59;144994;564;5003;-84
2021/06/13 19:31:07;;;;;;;2.28;1.60;;;;;;;25.38;38.49;101045.72;144994;675;5002;-83
2021/06/13 19:33:34;;;;;;;1.85;1.58;;;;;;;25.37;38.20;101051.94;144994;599;5002;-83
2021/06/13 19:36:01;;;;;;;3.33;2.00;;;;;;;25.41;38.17;101067.75;144994;573;5002;-83
2021/06/13 19:38:28;;;;;;;2.05;1.83;;;;;;;25.35;38.60;101065.25;144994;566;5002;-82
2021/06/13 19:40:55;;;;;;;2.10;1.90;;;;;;;25.50;38.90;101077.25;144994;587;5002;-82
2021/06/13 19:43:23;;;;;;;3.83;1.77;;;;;;;25.39;38.80;101061.63;144994;605;5002;-84
2021/06/13 19:45:51;;;;;;;3.37;1.83;;;;;;;25.43;38.64;101059.75;144993;578;5002;-83
2021/06/13 19:48:19;;;;;;;1.70;1.60;;;;;;;25.44;38.78;101056.19;144994;581;5002;-82
2021/06/13 19:50:50;;;;;;;1.85;1.75;;;;;;;25.33;38.73;101037.88;144994;739;5002;-82
2021/06/13 19:53:19;;;;;;;3.03;1.83;;;;;;;25.22;38.52;101039.91;144994;588;5002;-81
2021/06/13 19:55:49;;;;;;;3.45;1.90;;;;;;;25.13;38.07;101022.41;144994;565;5002;-82
2021/06/13 19:58:17;;;;;;;2.70;1.75;;;;;;;25.11;38.16;101030.41;144994;590;5002;-79
2021/06/13 20:00:46;;;;;;;3.03;1.83;;;;;;;25.10;37.61;101035.75;144994;643;5002;-80
2021/06/13 20:03:15;;;;;;;3.47;2.10;;;;;;;25.15;37.64;101033.84;144994;630;5002;-81
2021/06/13 20:05:46;;;;;;;3.40;2.00;;;;;;;25.17;37.83;101030.25;144994;613;5002;-79
2021/06/13 20:08:12;;;;;;;3.28;1.73;;;;;;;25.13;35.64;101022.41;144994;566;5002;-82
2021/06/13 20:10:40;;;;;;;3.45;1.50;;;;;;;25.20;35.61;101031.09;144994;598;5002;-80
2021/06/13 20:13:07;;;;;;;4.85;1.70;;;;;;;25.08;35.53;101026.97;144994;596;5002;-83
2021/06/13 20:15:35;;;;;;;3.55;1.75;;;;;;;25.07;36.05;101011.94;144993;567;5002;-87
2021/06/13 20:18:02;;;;;;;3.62;2.00;;;;;;;24.99;36.32;101038.69;144994;584;5002;-81
2021/06/13 20:20:31;;;;;;;7.72;1.98;;;;;;;24.83;39.83;101042.66;144994;631;5002;-82
2021/06/13 20:22:58;;;;;;;2.78;1.90;;;;;;;24.78;40.52;101045.41;144993;578;5002;-83
2021/06/13 20:25:28;;;;;;;1.70;1.50;;;;;;;24.73;40.52;101055.28;144994;598;5002;-81
2021/06/13 20:27:54;;;;;;;3.40;1.60;;;;;;;24.62;39.90;101060.81;144994;613;5002;-82
2021/06/13 20:30:24;;;;;;;4.43;1.75;;;;;;;24.57;39.77;101058.28;144994;608;5002;-81
2021/06/13 20:32:52;;;;;;;4.93;1.42;;;;;;;24.54;39.63;101050.34;144994;620;5002;-81
2021/06/13 20:35:20;;;;;;;6.40;1.30;;;;;;;24.55;38.72;101064.50;144994;622;5002;-81
2021/06/13 20:37:51;;;;;;;4.00;1.40;;;;;;;24.53;37.29;101071.59;144994;608;5002;-80
2021/06/13 20:40:21;;;;;;;4.12;1.05;;;;;;;24.46;35.17;101078.84;144994;597;5002;-82
2021/06/13 20:42:48;;;;;;;3.20;1.20;;;;;;;24.35;34.57;101083.50;144994;592;5002;-81
2021/06/13 20:45:20;;;;;;;3.97;1.45;;;;;;;24.36;35.23;101106.50;144994;594;5002;-83
2021/06/13 20:47:47;;;;;;;2.47;1.20;;;;;;;24.40;35.27;101124.97;144993;576;5002;-82
2021/06/13 20:50:16;;;;;;;2.47;1.40;;;;;;;24.22;36.22;101141.25;144994;613;5002;-80
2021/06/13 20:52:44;;;;;;;3.65;1.33;;;;;;;24.13;36.91;101150.25;144994;597;5002;-81
2021/06/13 20:55:12;;;;;;;3.40;1.33;;;;;;;23.99;37.23;101139.06;144994;597;5002;-82
2021/06/13 20:57:40;;;;;;;5.55;1.30;;;;;;;24.02;35.96;101157.56;144994;647;5002;-80
2021/06/13 21:00:10;;;;;;;2.70;1.20;;;;;;;23.99;35.52;101149.66;144994;608;5002;-81
2021/06/13 21:02:37;;;;;;;1.80;1.35;;;;;;;23.97;34.50;101147.03;144994;601;5002;-82
2021/06/13 21:05:05;;;;;;;1.52;1.10;;;;;;;23.94;34.20;101157.72;144993;572;5002;-81
2021/06/13 21:07:32;;;;;;;4.43;1.30;;;;;;;23.87;33.77;101167.53;144994;564;5002;-82
2021/06/13 21:09:59;;;;;;;2.50;1.08;;;;;;;23.83;33.55;101165.87;144994;583;5002;-82
2021/06/13 21:12:32;;;;;;;1.30;1.10;;;;;;;23.95;35.10;101158.59;144994;569;5002;-83
2021/06/13 21:15:00;;;;;;;1.48;1.00;;;;;;;24.08;34.87;101157.44;144994;579;5002;-82
2021/06/13 21:17:31;;;;;;;3.17;1.25;;;;;;;24.01;33.05;101150.53;144994;572;5002;-81
2021/06/13 21:19:58;;;;;;;2.22;1.40;;;;;;;24.17;34.75;101154.63;144994;591;5002;-83
2021/06/13 21:22:26;;;;;;;3.22;1.33;;;;;;;24.18;34.37;101135.16;144994;650;5002;-81
2021/06/13 21:24:52;;;;;;;1.98;1.00;;;;;;;24.07;34.07;101130.06;144994;581;5002;-83
2021/06/13 21:27:19;;;;;;;3.78;1.37;;;;;;;24.06;31.82;101128.31;144993;575;5002;-82
2021/06/13 21:29:46;;;;;;;1.87;1.10;;;;;;;23.96;31.15;101113.50;144994;586;5002;-82
2021/06/13 21:32:13;;;;;;;1.70;1.20;;;;;;;23.97;31.62;101124.97;144993;564;5002;-81
2021/06/13 21:34:39;;;;;;;1.25;1.08;;;;;;;24.05;32.70;101118.63;144994;585;5002;-81
2021/06/13 21:37:06;;;;;;;1.40;1.25;;;;;;;23.96;31.36;101110.84;144994;582;5002;-81
2021/06/13 21:39:34;;;;;;;3.28;1.37;;;;;;;23.95;31.59;101113.53;144994;574;5002;-82
2021/06/13 21:42:04;;;;;;;2.30;1.10;;;;;;;23.90;31.38;101103.88;144994;659;5002;-80
2021/06/13 21:44:31;;;;;;;3.85;1.10;;;;;;;23.86;31.19;101112.81;144994;584;5002;-80
2021/06/13 21:46:58;;;;;;;4.82;1.15;;;;;;;23.91;31.76;101115.37;144994;585;5002;-80
2021/06/13 21:49:24;;;;;;;7.00;1.30;;;;;;;23.90;31.69;101133.03;144994;594;5002;-81
2021/06/13 21:51:51;;;;;;;4.22;0.93;;;;;;;24.00;31.93;101122.25;144994;653;5002;-80
2021/06/13 21:54:17;;;;;;;1.87;1.10;;;;;;;23.94;32.15;101125.00;144994;608;5002;-81
2021/06/13 21:56:45;;;;;;;2.67;1.20;;;;;;;23.88;32.33;101137.50;144994;573;5002;-83
2021/06/13 21:59:16;;;;;;;3.90;1.15;;;;;;;23.81;33.47;101150.84;144993;569;5002;-83
2021/06/13 22:01:43;;;;;;;3.78;1.40;;;;;;;23.75;34.86;101172.16;144994;581;5002;-82
2021/06/13 22:04:09;;;;;;;2.70;1.33;;;;;;;23.73;36.49;101177.50;144994;586;5002;-81
2021/06/13 22:06:36;;;;;;;4.00;1.35;;;;;;;23.61;38.29;101186.53;144994;570;5002;-80
2021/06/13 22:09:05;;;;;;;4.25;1.73;;;;;;;23.35;40.35;101208.16;144994;581;5002;-82
2021/06/13 22:11:32;;;;;;;3.15;1.80;;;;;;;22.97;43.58;101239.56;144994;613;5002;-78
2021/06/13 22:13:58;;;;;;;4.32;2.03;;;;;;;22.58;48.32;101225.94;144994;593;5002;-79
2021/06/13 22:16:25;;;;;;;4.20;2.30;;;;;;;22.27;51.44;101234.19;144994;563;5002;-80
2021/06/13 22:18:52;;;;;;;4.82;2.35;;;;;;;22.06;50.08;101237.94;144994;605;5002;-81
2021/06/13 22:21:22;;;;;;;4.37;1.98;;;;;;;21.64;51.02;101258.53;144994;653;5002;-79
2021/06/13 22:23:50;;;;;;;3.10;1.98;;;;;;;21.56;52.64;101263.00;144994;600;5002;-80
2021/06/13 22:26:17;;;;;;;3.20;1.80;;;;;;;21.40;53.92;101258.69;144994;642;5002;-82
2021/06/13 22:28:44;;;;;;;3.25;1.90;;;;;;;21.30;54.58;101255.22;144994;583;5002;-80
2021/06/13 22:31:11;;;;;;;5.18;2.28;;;;;;;21.30;54.68;101234.09;144994;569;5002;-80
2021/06/13 22:33:38;;;;;;;3.45;2.00;;;;;;;21.48;50.01;101222.53;144994;583;5002;-81
2021/06/13 22:36:06;;;;;;;3.72;1.92;;;;;;;21.41;54.59;101226.97;144994;644;5002;-82
2021/06/13 22:38:33;;;;;;;4.70;2.10;;;;;;;21.28;56.64;101225.31;144994;577;5002;-81
2021/06/13 22:41:01;;;;;;;3.47;1.92;;;;;;;21.43;54.95;101224.31;144994;577;5002;-84
2021/06/13 22:43:28;;;;;;;3.47;1.80;;;;;;;21.64;49.88;101218.91;144994;574;5002;-81
2021/06/13 22:45:56;;;;;;;3.50;2.17;;;;;;;21.60;56.82;101222.47;144994;618;5002;-81
2021/06/13 22:48:23;;;;;;;4.03;2.00;;;;;;;21.72;55.60;101211.78;144994;565;5002;-81
2021/06/13 22:50:51;;;;;;;3.50;1.87;;;;;;;21.78;52.96;101199.41;144994;623;5016;-81
2021/06/13 22:53:20;;;;;;;3.67;1.90;;;;;;;21.98;49.09;101199.25;144993;624;5002;-82
2021/06/13 22:55:46;;;;;;;3.53;1.92;;;;;;;22.11;49.02;101187.62;144994;605;5002;-82
2021/06/13 22:58:13;;;;;;;5.37;2.10;;;;;;;22.23;48.63;101187.50;144994;622;4567;-81
2021/06/13 23:00:41;;;;;;;2.50;2.20;;;;;;;22.32;48.92;101188.31;144994;569;4569;-81
2021/06/13 23:03:11;;;;;;;4.50;2.10;;;;;;;22.03;55.51;101194.78;144994;594;4572;-82
2021/06/13 23:05:38;;;;;;;4.28;2.22;;;;;;;22.15;50.03;101176.16;144992;644;6002;-82
2021/06/13 23:08:05;;;;;;;5.57;2.25;;;;;;;22.16;49.97;101172.63;144992;579;6002;-82
2021/06/13 23:10:32;;;;;;;4.20;2.40;;;;;;;22.14;55.20;101182.31;144992;578;6002;-82
2021/06/13 23:12:59;;;;;;;3.65;2.17;;;;;;;22.02;55.24;101183.34;144992;578;6002;-81
2021/06/13 23:15:27;;;;;;;3.58;2.03;;;;;;;22.06;50.63;101176.25;144992;648;6002;-81
2021/06/13 23:17:54;;;;;;;9.18;2.35;;;;;;;22.01;51.35;101178.94;144992;563;6002;-80
2021/06/13 23:20:21;;;;;;;3.83;2.30;;;;;;;22.04;52.03;101176.25;144992;594;6002;-81
2021/06/13 23:22:47;;;;;;;3.62;2.28;;;;;;;21.95;56.46;101184.28;144992;579;6002;-81
2021/06/13 23:25:15;;;;;;;4.22;2.72;;;;;;;21.99;56.78;101183.38;144992;566;6002;-81
2021/06/13 23:27:42;;;;;;;7.12;3.10;;;;;;;22.02;50.96;101175.41;144992;573;6002;-81
2021/06/13 23:30:12;;;;;;;4.45;2.75;;;;;;;22.09;51.65;101168.28;144992;564;6002;-81
2021/06/13 23:32:38;;;;;;;3.65;2.83;;;;;;;22.07;51.53;101165.66;144992;599;6002;-81
2021/06/13 23:35:07;;;;;;;4.57;3.00;;;;;;;22.00;59.50;101174.56;144992;583;6002;-83
2021/06/13 23:37:34;;;;;;;3.72;2.65;;;;;;;21.92;59.72;101172.00;144992;581;6002;-81
2021/06/13 23:40:02;;;;;;;3.87;2.62;;;;;;;21.73;61.32;101162.50;144992;587;6002;-81
2021/06/13 23:42:28;;;;;;;4.80;2.80;;;;;;;21.81;60.99;101172.97;144992;593;6002;-83
2021/06/13 23:44:55;;;;;;;4.40;2.47;;;;;;;21.78;56.93;101154.50;144992;572;6002;-81
2021/06/13 23:47:24;;;;;;;3.15;2.67;;;;;;;21.76;60.97;101161.56;144992;652;6002;-81
2021/06/13 23:49:51;;;;;;;3.50;3.05;;;;;;;21.66;58.02;101156.38;144992;594;6003;-83
2021/06/13 23:52:17;;;;;;;3.55;2.62;;;;;;;21.83;54.72;101165.91;144992;579;6002;-81
2021/06/13 23:54:46;;;;;;;4.15;2.58;;;;;;;21.95;54.66;101165.78;144992;563;6002;-81
2021/06/13 23:57:15;;;;;;;4.82;2.92;;;;;;;21.80;61.42;101164.16;144992;581;6003;-83
2021/06/13 23:59:50;;;;;;;4.68;3.33;;;;;;;21.98;57.75;101170.16;144992;638;6002;-82
